Accueil
METAR-TAF:

METAR-TAF

Aéroports :

Rheine, Allemagne

latitude: 52-18N, longitude: 007-23E, altitude: 40 m

Observation

Le bulletin a été fait il y a 19 minutes, à 01:20 UTC
Vent 2 kt de direction variable
Température 14°C
Humidité 88%
Pression 1020 hPa

METAR: ETHE 170120Z AUTO VRB02KT //// // ////// 14/12 Q1020 ///

Heure: 03:39 (01:39 UTC)

Prévision

Le bulletin a été fait il y a 12 heures et 35 minutes, à 13:04 UTC
Prévision valable du 16 à 14 UTC au 16 à 23 UTC
Vent 6 kt de sud/sud-ouest
Visibilité: 1330 m
Quelques nuages à une hauteur de 12000 ft
Nuages épars à une hauteur de 24000 ft

TAF: ETHE 161304Z 1614/1623 20006KT 9999 NSW FEW120 SCT240 CANCEL 1330

Observations et prévisions météorologiques de plus de 4000 aéroports (messages METAR et TAF).

Les stations disponibles sont représentées par des disques jaunes et rouges sur la carte.

Passer la souris dessus pour voir le nom de la station.

Cliquer dessus pour voir les observations et prévisions météorologiques.

Pour changer de carte: cliquez sur les boutons verts avec une croix noire pour zoomer, sur le bouton vert avec un tiret pour effectuer un zoom arrière, ou sur les flèches vertes pour les cartes adjacentes.


METAR-TAF: